Time;durP1;ratioP1;P1;durP2;ratioP2;P2;SDS_P1;SDS_P2;PMS_P1;PMS_P2;Temp;Humidity;BMP_temperature;BMP_pressure;BME280_temperature;BME280_humidity;BME280_pressure;Samples;Min_cycle;Max_cycle;Signal;HPM_P1;HPM_P2
2021/05/20 00:02:14;;;;;;;0.88;0.52;;;;;;;10.69;nan;100872.16;5052065;28;20036;-72
2021/05/20 00:04:40;;;;;;;0.57;0.43;;;;;;;10.69;nan;100876.63;5059298;28;20090;-72
2021/05/20 00:07:06;;;;;;;0.93;0.52;;;;;;;10.64;nan;100866.47;5067023;28;20060;-72
2021/05/20 00:09:32;;;;;;;1.20;0.60;;;;;;;10.68;nan;100875.81;5052590;28;20056;-72
2021/05/20 00:11:57;;;;;;;0.80;0.50;;;;;;;10.65;nan;100875.25;5063556;28;20281;-72
2021/05/20 00:14:22;;;;;;;1.33;0.70;;;;;;;10.68;nan;100881.09;5062311;28;20064;-72
2021/05/20 00:16:49;;;;;;;0.88;0.68;;;;;;;10.70;nan;100879.13;5065995;28;20515;-72
2021/05/20 00:19:14;;;;;;;1.05;0.57;;;;;;;10.71;nan;100879.97;5064479;28;20043;-72
2021/05/20 00:21:40;;;;;;;1.65;0.57;;;;;;;10.72;nan;100882.44;5065138;28;20033;-72
2021/05/20 00:24:05;;;;;;;1.67;0.70;;;;;;;10.76;nan;100877.72;5062882;28;20037;-74
2021/05/20 00:26:32;;;;;;;4.03;0.80;;;;;;;10.75;nan;100889.25;5062248;28;20035;-72
2021/05/20 00:28:58;;;;;;;1.15;0.68;;;;;;;10.72;nan;100879.81;5068349;28;20046;-72
2021/05/20 00:31:23;;;;;;;2.17;0.82;;;;;;;10.73;nan;100880.66;5069746;28;20032;-72
2021/05/20 00:33:48;;;;;;;1.63;0.80;;;;;;;10.69;nan;100882.75;5061596;28;20493;-72
2021/05/20 00:36:14;;;;;;;1.48;0.68;;;;;;;10.70;nan;100887.06;5086483;28;20268;-72
2021/05/20 00:38:39;;;;;;;0.80;0.63;;;;;;;10.70;nan;100892.38;5087295;28;20020;-72
2021/05/20 00:41:04;;;;;;;1.10;0.60;;;;;;;10.72;nan;100881.63;5070080;28;20139;-72
2021/05/20 00:43:30;;;;;;;0.90;0.70;;;;;;;10.71;nan;100888.72;5082561;28;20165;-72
2021/05/20 00:45:55;;;;;;;1.20;0.75;;;;;;;10.76;nan;100885.66;5089026;28;20047;-72
2021/05/20 00:48:21;;;;;;;1.05;0.50;;;;;;;10.72;nan;100882.44;5086863;28;20465;-73
2021/05/20 00:50:47;;;;;;;1.17;0.63;;;;;;;10.75;nan;100884.81;5084327;28;20032;-72
2021/05/20 00:53:14;;;;;;;0.82;0.65;;;;;;;10.74;nan;100882.31;5080239;28;20031;-72
2021/05/20 00:55:40;;;;;;;1.60;0.60;;;;;;;10.78;nan;100883.69;5067829;28;20036;-72
2021/05/20 00:58:06;;;;;;;2.05;0.70;;;;;;;10.74;nan;100885.78;5087751;28;20043;-74
2021/05/20 01:00:32;;;;;;;0.50;0.50;;;;;;;10.77;nan;100882.88;5089172;28;20370;-72
2021/05/20 01:02:57;;;;;;;2.88;0.90;;;;;;;10.79;nan;100874.78;5081046;28;20039;-72
2021/05/20 01:05:23;;;;;;;0.85;0.52;;;;;;;10.73;nan;100881.50;5064467;28;20297;-72
2021/05/20 01:07:48;;;;;;;1.05;0.65;;;;;;;10.72;nan;100882.44;5064925;28;20494;-72
2021/05/20 01:10:13;;;;;;;0.65;0.60;;;;;;;10.71;nan;100878.16;5063562;28;20051;-73
2021/05/20 01:13:13;;;;;;;1.45;0.75;;;;;;;10.67;nan;100879.41;5047684;28;20032;-72
2021/05/20 01:16:12;;;;;;;0.80;0.60;;;;;;;10.63;nan;100885.97;5046826;28;20029;-72
2021/05/20 01:19:30;;;;;;;1.10;0.68;;;;;;;10.61;nan;100885.28;5078241;28;20057;-73
2021/05/20 01:22:08;;;;;;;1.65;0.75;;;;;;;10.66;nan;100890.16;5072006;28;20032;-72
2021/05/20 01:24:42;;;;;;;1.45;0.60;;;;;;;10.59;nan;100892.53;5074530;28;20040;-73
2021/05/20 01:27:26;;;;;;;1.50;1.00;;;;;;;10.58;nan;100899.63;5083699;28;20047;-72
2021/05/20 01:30:20;;;;;;;2.05;1.00;;;;;;;10.50;nan;100896.84;5085439;28;20039;-74
2021/05/20 01:33:03;;;;;;;1.80;0.73;;;;;;;10.23;nan;100894.91;5065184;28;20072;-74
2021/05/20 01:35:46;;;;;;;0.98;0.65;;;;;;;10.15;nan;100895.63;5074273;28;20123;-74
2021/05/20 01:41:24;;;;;;;1.08;0.70;;;;;;;9.84;nan;100892.25;5069570;28;20123;-75
2021/05/20 01:43:49;;;;;;;1.23;0.70;;;;;;;9.79;nan;100889.19;5077106;28;20063;-76
2021/05/20 01:46:15;;;;;;;1.58;0.82;;;;;;;9.69;nan;100897.09;5081509;28;20356;-75
2021/05/20 01:48:42;;;;;;;2.45;0.90;;;;;;;9.61;nan;100898.78;5086966;28;20027;-76
2021/05/20 01:51:16;;;;;;;2.13;0.70;;;;;;;9.62;nan;100898.63;5079575;28;20021;-75
2021/05/20 01:53:44;;;;;;;1.67;0.85;;;;;;;9.62;nan;100898.63;5060260;28;20026;-75
2021/05/20 01:56:11;;;;;;;0.85;0.50;;;;;;;9.62;nan;100900.44;5090257;28;20503;-75
2021/05/20 01:58:37;;;;;;;1.83;0.80;;;;;;;9.63;nan;100892.41;5084832;28;20025;-76
2021/05/20 02:01:04;;;;;;;1.10;0.70;;;;;;;9.67;nan;100904.31;5064148;28;20090;-75
2021/05/20 02:03:30;;;;;;;1.33;0.77;;;;;;;9.66;nan;100904.50;5081375;28;20040;-75
2021/05/20 02:05:58;;;;;;;1.40;0.75;;;;;;;9.69;nan;100904.19;5076311;28;20711;-75
2021/05/20 02:08:26;;;;;;;1.40;0.80;;;;;;;9.64;nan;100901.13;5082015;28;20043;-76
2021/05/20 02:10:52;;;;;;;0.73;0.60;;;;;;;9.64;nan;100906.41;5081931;28;20115;-76
2021/05/20 02:13:17;;;;;;;1.02;0.77;;;;;;;9.68;nan;100907.81;5087314;28;20066;-75
2021/05/20 02:15:43;;;;;;;1.90;0.93;;;;;;;9.68;nan;100899.91;5089473;28;20060;-75
2021/05/20 02:18:08;;;;;;;1.55;0.82;;;;;;;9.57;nan;100896.38;5070188;28;20079;-76
2021/05/20 02:20:35;;;;;;;1.52;0.98;;;;;;;9.56;nan;100900.00;5072870;28;20033;-76
2021/05/20 02:23:01;;;;;;;1.13;0.80;;;;;;;9.56;nan;100915.03;5071388;28;20508;-76
2021/05/20 02:25:27;;;;;;;2.95;1.15;;;;;;;9.53;nan;100912.63;5065583;28;20517;-76
2021/05/20 02:27:52;;;;;;;2.10;1.17;;;;;;;9.51;nan;100907.50;5073469;28;20402;-76
2021/05/20 02:30:18;;;;;;;2.10;1.10;;;;;;;9.49;nan;100911.25;5073010;28;20047;-76
2021/05/20 02:32:43;;;;;;;2.13;1.08;;;;;;;9.49;nan;100908.63;5072807;28;20481;-75
2021/05/20 02:35:10;;;;;;;2.30;1.13;;;;;;;9.49;nan;100906.81;5073696;28;20519;-74
2021/05/20 02:37:36;;;;;;;3.22;1.20;;;;;;;9.43;nan;100912.63;5084353;28;20070;-74
2021/05/20 02:40:04;;;;;;;2.28;1.38;;;;;;;9.38;nan;100912.19;5077644;28;20040;-75
2021/05/20 02:42:29;;;;;;;1.98;1.30;;;;;;;9.34;nan;100905.50;5073298;28;20078;-75
2021/05/20 02:44:54;;;;;;;2.25;1.20;;;;;;;9.32;nan;100912.75;5073393;28;20037;-75
2021/05/20 02:47:20;;;;;;;2.90;1.38;;;;;;;9.31;nan;100919.81;5074060;28;20065;-75
2021/05/20 02:49:45;;;;;;;2.50;1.30;;;;;;;9.33;nan;100917.88;5088926;28;20421;-75
2021/05/20 02:52:10;;;;;;;2.40;1.45;;;;;;;9.31;nan;100916.34;5089889;28;20036;-75
2021/05/20 02:54:36;;;;;;;3.38;1.40;;;;;;;9.30;nan;100915.50;5063306;28;571341;-75
2021/05/20 02:57:02;;;;;;;2.22;1.35;;;;;;;9.24;nan;100921.31;5062853;28;20177;-75
2021/05/20 02:59:28;;;;;;;2.95;1.50;;;;;;;9.22;nan;100925.88;5085834;28;20078;-75
2021/05/20 03:01:56;;;;;;;2.67;1.67;;;;;;;9.22;nan;100930.31;5094524;28;20033;-75
2021/05/20 03:04:21;;;;;;;3.47;1.60;;;;;;;9.23;nan;100924.94;5075138;28;20140;-75
2021/05/20 03:06:46;;;;;;;3.35;1.60;;;;;;;9.28;nan;100929.81;5067200;28;20053;-75
2021/05/20 03:09:11;;;;;;;2.75;1.52;;;;;;;9.23;nan;100924.94;5086686;28;20509;-75
2021/05/20 03:11:37;;;;;;;2.25;1.30;;;;;;;9.22;nan;100933.78;5095326;28;20078;-76
2021/05/20 03:14:03;;;;;;;2.25;1.50;;;;;;;9.23;nan;100932.00;5093836;28;20042;-76
2021/05/20 03:16:28;;;;;;;2.63;1.77;;;;;;;9.22;nan;100938.25;5094781;28;20119;-75
2021/05/20 03:18:53;;;;;;;4.28;1.80;;;;;;;9.20;nan;100945.44;5092664;28;20038;-76
2021/05/20 03:21:19;;;;;;;3.35;1.80;;;;;;;9.29;nan;100944.66;5083093;28;20029;-77
2021/05/20 03:23:44;;;;;;;3.72;2.03;;;;;;;9.24;nan;100942.41;5087727;28;20094;-77
2021/05/20 03:26:09;;;;;;;4.53;2.00;;;;;;;9.20;nan;100938.41;5068165;28;20036;-76
2021/05/20 03:28:35;;;;;;;3.95;2.00;;;;;;;9.18;nan;100944.78;5086636;28;20057;-76
2021/05/20 03:31:00;;;;;;;3.72;2.10;;;;;;;9.20;nan;100940.19;5061342;28;20032;-76
2021/05/20 03:33:26;;;;;;;4.15;2.03;;;;;;;9.20;nan;100948.09;5094609;28;20024;-75
2021/05/20 03:35:51;;;;;;;3.47;1.73;;;;;;;9.19;nan;100943.78;5080389;28;20080;-75
2021/05/20 03:38:17;;;;;;;2.92;2.10;;;;;;;9.20;nan;100943.66;5067392;28;20080;-76
2021/05/20 03:40:42;;;;;;;2.33;1.67;;;;;;;9.17;nan;100945.72;5037471;28;20139;-75
2021/05/20 03:43:07;;;;;;;3.55;2.05;;;;;;;9.20;nan;100940.19;5079427;28;20041;-76
2021/05/20 03:45:32;;;;;;;3.42;1.90;;;;;;;9.19;nan;100943.78;5095136;28;20489;-76
2021/05/20 03:47:58;;;;;;;3.10;2.00;;;;;;;9.18;nan;100942.13;5089738;28;20055;-76
2021/05/20 03:50:23;;;;;;;5.13;2.17;;;;;;;9.17;nan;100948.38;5092534;28;20400;-75
2021/05/20 03:52:48;;;;;;;2.28;1.65;;;;;;;9.17;nan;100957.09;5094330;28;20115;-75
2021/05/20 03:55:14;;;;;;;3.65;2.20;;;;;;;9.17;nan;100948.38;5093894;28;20040;-76
2021/05/20 03:57:39;;;;;;;2.58;2.03;;;;;;;9.14;nan;100960.00;5093318;28;20421;-76
2021/05/20 04:00:05;;;;;;;4.82;1.90;;;;;;;9.16;nan;100970.44;5089126;28;20112;-77
2021/05/20 04:02:31;;;;;;;3.13;1.70;;;;;;;9.18;nan;100965.88;5092031;28;20055;-76
2021/05/20 04:04:56;;;;;;;3.10;2.20;;;;;;;9.22;nan;100968.09;5082765;28;20048;-76
2021/05/20 04:07:21;;;;;;;3.63;1.90;;;;;;;9.22;nan;100973.38;5083589;28;20028;-76
2021/05/20 04:09:47;;;;;;;3.67;2.08;;;;;;;9.28;nan;100977.31;5084363;28;20039;-77
2021/05/20 04:12:12;;;;;;;4.80;2.10;;;;;;;9.25;nan;100965.22;5090652;28;20552;-77
2021/05/20 04:14:38;;;;;;;3.10;2.25;;;;;;;9.28;nan;100970.22;5072570;28;20108;-75
2021/05/20 04:17:04;;;;;;;3.95;2.30;;;;;;;9.24;nan;100973.25;5076801;28;20066;-75
2021/05/20 04:19:29;;;;;;;2.80;2.08;;;;;;;9.28;nan;100978.13;5093148;28;20028;-76
2021/05/20 04:21:54;;;;;;;4.97;2.40;;;;;;;9.19;nan;100981.56;5069786;28;20679;-76
2021/05/20 04:24:21;;;;;;;2.90;2.10;;;;;;;9.16;nan;100981.84;5091047;28;20029;-76
2021/05/20 04:26:47;;;;;;;3.08;1.88;;;;;;;9.23;nan;100985.63;5079616;28;20059;-76
2021/05/20 04:29:12;;;;;;;4.18;2.63;;;;;;;9.25;nan;100988.13;5092244;28;20035;-75
2021/05/20 04:31:37;;;;;;;3.13;2.25;;;;;;;9.30;nan;100991.22;5091688;28;20466;-76
2021/05/20 04:34:03;;;;;;;3.63;2.88;;;;;;;9.30;nan;100993.84;5084244;28;20031;-76
2021/05/20 04:36:28;;;;;;;4.65;2.90;;;;;;;9.32;nan;100998.03;5089801;28;20148;-76
2021/05/20 04:38:54;;;;;;;4.38;2.80;;;;;;;9.33;nan;101001.50;5092818;28;20051;-75
2021/05/20 04:41:19;;;;;;;4.10;2.78;;;;;;;9.35;nan;100997.75;5089974;28;20105;-76
2021/05/20 04:43:44;;;;;;;3.55;2.72;;;;;;;9.32;nan;101000.66;5078977;28;20028;-76
2021/05/20 04:46:10;;;;;;;3.70;2.50;;;;;;;9.36;nan;101001.22;5086501;28;20068;-76
2021/05/20 04:48:35;;;;;;;3.83;2.95;;;;;;;9.40;nan;101002.63;5087401;28;20077;-75
2021/05/20 04:51:01;;;;;;;3.97;3.10;;;;;;;9.37;nan;101016.09;5089024;28;20040;-76
2021/05/20 04:53:27;;;;;;;4.00;3.00;;;;;;;9.38;nan;101007.22;5090129;28;20504;-76
2021/05/20 04:55:52;;;;;;;4.32;2.75;;;;;;;9.42;nan;101007.78;5072161;28;20067;-77
2021/05/20 04:58:18;;;;;;;4.10;2.88;;;;;;;9.44;nan;101014.59;5087409;28;20057;-76
2021/05/20 05:00:43;;;;;;;4.60;2.80;;;;;;;9.49;nan;101015.03;5069070;28;20032;-76
2021/05/20 05:03:09;;;;;;;4.28;2.97;;;;;;;9.49;nan;101020.31;5051548;28;20403;-76
2021/05/20 05:05:34;;;;;;;3.92;2.42;;;;;;;9.52;nan;101020.06;5066825;28;20449;-76
2021/05/20 05:07:59;;;;;;;4.47;2.95;;;;;;;9.55;nan;101026.88;5082402;28;20060;-75
2021/05/20 05:10:25;;;;;;;3.72;2.70;;;;;;;9.57;nan;101035.50;5087578;28;20044;-76
2021/05/20 05:12:50;;;;;;;3.33;2.50;;;;;;;9.67;nan;101038.16;5060710;28;20441;-76
2021/05/20 05:15:16;;;;;;;4.18;2.97;;;;;;;9.60;nan;101031.75;5079239;28;20070;-76
2021/05/20 05:17:41;;;;;;;5.30;3.20;;;;;;;9.69;nan;101030.97;5074740;28;20052;-76
2021/05/20 05:20:07;;;;;;;5.10;3.20;;;;;;;9.68;nan;101039.84;5067175;28;20063;-76
2021/05/20 05:22:33;;;;;;;3.80;2.90;;;;;;;9.69;nan;101033.59;5069567;28;20086;-76
2021/05/20 05:24:58;;;;;;;4.75;3.20;;;;;;;9.69;nan;101044.16;5065053;28;20443;-76
2021/05/20 05:27:23;;;;;;;4.88;3.22;;;;;;;9.70;nan;101051.09;5069061;28;20437;-76
2021/05/20 05:29:49;;;;;;;4.93;3.30;;;;;;;9.68;nan;101048.59;5065816;28;20025;-77
2021/05/20 05:32:14;;;;;;;3.47;2.85;;;;;;;9.69;nan;101050.25;5059764;28;20256;-75
2021/05/20 05:34:40;;;;;;;4.32;3.05;;;;;;;9.73;nan;101053.50;5064010;28;20029;-75
2021/05/20 05:37:06;;;;;;;3.50;2.78;;;;;;;9.76;nan;101061.13;5076103;28;20040;-76
2021/05/20 05:39:32;;;;;;;5.10;3.53;;;;;;;9.81;nan;101052.81;5089413;28;20036;-75
2021/05/20 05:41:57;;;;;;;4.28;3.22;;;;;;;9.87;nan;101050.47;5089359;28;20442;-77
2021/05/20 05:44:22;;;;;;;4.40;3.13;;;;;;;9.88;nan;101060.06;5086919;28;20475;-75
2021/05/20 05:46:48;;;;;;;4.85;2.85;;;;;;;9.93;nan;101068.41;5074770;28;20042;-75
2021/05/20 05:49:16;;;;;;;4.43;3.20;;;;;;;9.99;nan;101070.53;5069640;28;20058;-75
2021/05/20 05:51:46;;;;;;;5.53;3.50;;;;;;;10.04;nan;101064.03;5064228;28;20044;-75
2021/05/20 05:54:12;;;;;;;4.80;2.90;;;;;;;10.08;nan;101068.03;5067200;28;20051;-76
2021/05/20 05:56:37;;;;;;;4.70;3.38;;;;;;;10.08;nan;101073.34;5068595;28;20067;-76
2021/05/20 05:59:03;;;;;;;3.90;2.67;;;;;;;10.12;nan;101072.94;5057138;28;20559;-75
2021/05/20 06:01:29;;;;;;;4.15;2.75;;;;;;;10.13;nan;101073.75;5059751;28;20028;-76
2021/05/20 06:03:54;;;;;;;3.30;2.75;;;;;;;10.19;nan;101076.69;5084757;28;20070;-76
2021/05/20 06:06:20;;;;;;;4.95;3.45;;;;;;;10.20;nan;101082.81;5089234;28;20032;-75
2021/05/20 06:08:45;;;;;;;6.47;3.17;;;;;;;10.26;nan;101077.00;5089580;28;20597;-76
2021/05/20 06:11:11;;;;;;;6.82;3.88;;;;;;;10.35;nan;101092.06;5076740;28;20056;-76
2021/05/20 06:13:36;;;;;;;6.18;4.00;;;;;;;10.34;nan;101078.97;5089810;28;20028;-75
2021/05/20 06:16:01;;;;;;;4.78;3.45;;;;;;;10.37;nan;101076.09;5088817;28;20032;-76
2021/05/20 06:18:27;;;;;;;5.57;3.47;;;;;;;10.51;nan;101086.25;5086717;28;20032;-76
2021/05/20 06:20:52;;;;;;;4.45;3.65;;;;;;;10.52;nan;101087.09;5070052;28;20144;-76
2021/05/20 06:23:17;;;;;;;4.15;3.05;;;;;;;10.61;nan;101091.56;5065813;28;20074;-75
2021/05/20 06:25:45;;;;;;;4.82;3.65;;;;;;;10.63;nan;101089.63;5069073;28;20044;-75
2021/05/20 06:28:10;;;;;;;2.70;2.10;;;;;;;10.69;nan;101088.22;5056886;28;20087;-77
2021/05/20 06:30:36;;;;;;;3.60;2.70;;;;;;;10.73;nan;101089.63;5051969;28;20037;-76
2021/05/20 06:33:01;;;;;;;3.97;3.00;;;;;;;10.76;nan;101090.16;5063899;28;20089;-76
2021/05/20 06:35:27;;;;;;;5.80;4.20;;;;;;;10.74;nan;101092.09;5062478;28;20107;-75
2021/05/20 06:37:52;;;;;;;5.25;4.05;;;;;;;10.72;nan;101085.28;5084228;28;20032;-75
2021/05/20 06:40:17;;;;;;;6.43;4.15;;;;;;;10.66;nan;101088.50;5086048;28;20036;-75
2021/05/20 06:42:43;;;;;;;6.25;3.97;;;;;;;10.69;nan;101096.16;5066972;28;20497;-77
2021/05/20 06:45:09;;;;;;;4.97;3.95;;;;;;;10.74;nan;101091.28;5069218;28;20052;-75
2021/05/20 06:47:34;;;;;;;5.05;4.40;;;;;;;10.86;nan;101098.09;5070259;28;20131;-75
2021/05/20 06:50:00;;;;;;;4.95;3.65;;;;;;;10.86;nan;101102.56;5073341;28;20051;-75
2021/05/20 06:52:25;;;;;;;6.47;4.28;;;;;;;10.83;nan;101096.56;5082424;28;20032;-75
2021/05/20 06:54:50;;;;;;;6.90;4.20;;;;;;;10.91;nan;101095.03;5092972;28;20039;-76
2021/05/20 06:57:26;;;;;;;4.93;3.78;;;;;;;10.89;nan;101100.44;5092209;28;20046;-76
2021/05/20 06:59:59;;;;;;;6.85;4.10;;;;;;;10.94;nan;101100.91;5089430;28;20500;-76
2021/05/20 07:02:25;;;;;;;5.45;4.18;;;;;;;11.06;nan;101101.59;5089674;28;20071;-75
2021/05/20 07:04:51;;;;;;;8.13;4.97;;;;;;;11.01;nan;101103.78;5067570;28;20042;-76
2021/05/20 07:07:17;;;;;;;6.75;3.83;;;;;;;11.16;nan;101102.41;5063786;28;20040;-76
2021/05/20 07:09:42;;;;;;;5.43;4.13;;;;;;;11.31;nan;101101.97;5071780;28;20044;-76
2021/05/20 07:12:08;;;;;;;5.18;4.38;;;;;;;11.41;nan;101089.53;5071517;28;20397;-76
2021/05/20 07:14:34;;;;;;;6.65;3.95;;;;;;;11.57;nan;101094.22;5072175;28;20040;-76
2021/05/20 07:17:00;;;;;;;5.97;4.38;;;;;;;11.64;nan;101096.16;5071730;28;20044;-76
2021/05/20 07:19:25;;;;;;;5.25;3.70;;;;;;;11.76;nan;101095.97;5071634;28;20058;-76
2021/05/20 07:21:51;;;;;;;5.07;4.03;;;;;;;12.11;nan;101098.78;5066451;28;20414;-75
2021/05/20 07:24:17;;;;;;;4.95;3.78;;;;;;;12.61;nan;101094.84;5068523;28;20048;-76
2021/05/20 07:26:43;;;;;;;4.07;3.10;;;;;;;13.52;nan;101099.88;5071264;28;20043;-76
2021/05/20 07:29:10;;;;;;;6.15;4.32;;;;;;;13.95;nan;101111.41;5071589;28;20555;-76
2021/05/20 07:31:35;;;;;;;5.93;4.32;;;;;;;13.76;nan;101111.66;5063549;28;20556;-75
2021/05/20 07:34:01;;;;;;;4.63;3.83;;;;;;;13.53;nan;101116.66;5071643;28;20123;-75
2021/05/20 07:36:27;;;;;;;5.45;3.83;;;;;;;13.26;nan;101110.47;5070875;28;20040;-75
2021/05/20 07:38:52;;;;;;;4.28;3.22;;;;;;;13.06;nan;101108.97;5071264;28;20279;-76
2021/05/20 07:41:18;;;;;;;4.97;3.80;;;;;;;13.31;nan;101113.53;5071540;28;20070;-76
2021/05/20 07:43:44;;;;;;;4.95;4.03;;;;;;;13.70;nan;101120.25;5071727;28;20032;-76
2021/05/20 07:46:10;;;;;;;4.95;3.83;;;;;;;13.70;nan;101110.44;5070809;28;20062;-75
2021/05/20 07:48:36;;;;;;;5.82;3.60;;;;;;;13.99;nan;101119.88;5069575;28;20370;-76
2021/05/20 07:51:03;;;;;;;4.38;3.15;;;;;;;14.68;nan;101119.78;5071380;28;20389;-77
2021/05/20 07:53:28;;;;;;;4.43;3.22;;;;;;;14.67;nan;101118.97;5045039;28;20059;-76
2021/05/20 07:55:54;;;;;;;5.35;3.47;;;;;;;14.29;nan;101120.34;5052724;28;20056;-76
2021/05/20 07:58:20;;;;;;;5.65;3.72;;;;;;;14.12;nan;101122.94;5069847;28;20025;-76
2021/05/20 08:00:45;;;;;;;4.93;3.55;;;;;;;13.44;nan;101118.41;5070395;28;20054;-76
2021/05/20 08:03:30;;;;;;;5.15;4.03;;;;;;;13.58;nan;101127.66;5071422;28;20048;-76
2021/05/20 08:06:13;;;;;;;4.07;3.25;;;;;;;13.16;nan;101125.66;5070529;28;20039;-75
2021/05/20 08:11:19;;;;;;;4.10;3.50;;;;;;;13.06;nan;101123.09;5071418;28;20039;-76
2021/05/20 08:13:45;;;;;;;7.00;4.40;;;;;;;13.37;nan;101117.38;5071452;28;20021;-76
2021/05/20 08:16:11;;;;;;;4.65;3.15;;;;;;;13.67;nan;101118.72;5069722;28;20489;-76
2021/05/20 08:18:36;;;;;;;4.38;3.08;;;;;;;14.21;nan;101121.97;5070680;28;20488;-75
2021/05/20 08:21:04;;;;;;;6.35;3.63;;;;;;;14.41;nan;101114.53;5052784;28;20050;-76
2021/05/20 08:23:31;;;;;;;3.90;3.28;;;;;;;14.36;nan;101110.72;5070113;28;20033;-76
2021/05/20 08:25:56;;;;;;;4.72;4.10;;;;;;;14.62;nan;101119.44;5077671;28;20033;-75
2021/05/20 08:28:22;;;;;;;6.07;3.80;;;;;;;14.35;nan;101107.22;5070268;28;20063;-76
2021/05/20 08:30:47;;;;;;;5.45;3.55;;;;;;;14.32;nan;101112.84;5070180;28;20024;-76
2021/05/20 08:33:13;;;;;;;4.28;3.45;;;;;;;14.34;nan;101107.38;5055638;28;20041;-76
2021/05/20 08:35:38;;;;;;;5.28;3.70;;;;;;;14.48;nan;101106.75;5069997;28;20132;-76
2021/05/20 08:38:04;;;;;;;4.72;3.97;;;;;;;14.68;nan;101111.81;5088447;28;20031;-76
2021/05/20 08:40:30;;;;;;;5.55;3.67;;;;;;;15.49;nan;101110.94;5083898;28;20394;-76
2021/05/20 08:42:56;;;;;;;4.35;3.42;;;;;;;16.56;nan;101116.72;5072188;28;20043;-75
2021/05/20 08:45:28;;;;;;;4.45;3.40;;;;;;;17.49;nan;101104.94;5074968;28;20040;-76
2021/05/20 08:47:55;;;;;;;4.18;2.75;;;;;;;17.93;nan;101101.50;5066814;28;20397;-77
2021/05/20 08:50:23;;;;;;;3.20;2.80;;;;;;;18.54;nan;101108.38;5068258;28;20028;-76
2021/05/20 08:52:50;;;;;;;4.93;3.50;;;;;;;19.47;nan;101109.19;5070365;28;20039;-76
2021/05/20 08:55:21;;;;;;;3.22;2.28;;;;;;;20.07;nan;101114.91;5063844;28;20195;-76
2021/05/20 08:57:46;;;;;;;;;;;;;;;21.05;nan;101114.59;5076491;28;20024;-76
2021/05/20 09:00:15;;;;;;;3.67;2.55;;;;;;;20.17;nan;101106.53;5086259;28;20380;-76
2021/05/20 09:02:41;;;;;;;4.60;3.05;;;;;;;20.13;nan;101111.44;5070483;28;20029;-75
2021/05/20 09:05:15;;;;;;;4.22;2.45;;;;;;;19.79;nan;101115.84;5074910;28;20036;-74
2021/05/20 09:07:42;;;;;;;3.13;2.40;;;;;;;18.98;nan;101118.13;5087505;28;20035;-75
2021/05/20 09:10:10;;;;;;;3.45;2.80;;;;;;;18.31;nan;101111.22;5085865;28;20108;-75
2021/05/20 09:12:36;;;;;;;2.55;2.00;;;;;;;17.78;nan;101112.19;5081488;28;20028;-75
2021/05/20 09:15:10;;;;;;;3.10;2.40;;;;;;;17.90;nan;101119.75;5085004;28;20040;-75
2021/05/20 09:17:35;;;;;;;3.28;2.42;;;;;;;17.86;nan;101116.63;5073832;28;20511;-75
2021/05/20 09:20:01;;;;;;;3.00;2.40;;;;;;;17.66;nan;101110.94;5069375;28;20032;-76
2021/05/20 09:22:29;;;;;;;3.88;2.50;;;;;;;17.81;nan;101114.50;5065020;28;20508;-75
2021/05/20 09:24:57;;;;;;;4.38;2.45;;;;;;;17.37;nan;101111.75;5061884;28;20036;-75
2021/05/20 09:27:34;;;;;;;3.20;2.30;;;;;;;17.53;nan;101113.44;5069701;28;20086;-74
2021/05/20 09:30:19;;;;;;;3.20;2.28;;;;;;;17.43;nan;101110.22;5085624;28;20397;-75
2021/05/20 09:32:56;;;;;;;3.28;1.88;;;;;;;17.37;nan;101111.75;5084889;28;20055;-75
2021/05/20 09:35:26;;;;;;;4.15;2.40;;;;;;;17.37;nan;101117.94;5081945;28;20071;-75
2021/05/20 09:37:52;;;;;;;3.47;2.55;;;;;;;17.73;nan;101106.56;5065401;28;20032;-75
2021/05/20 09:40:21;;;;;;;3.80;2.60;;;;;;;17.61;nan;101116.03;5081327;28;20051;-76
2021/05/20 09:42:48;;;;;;;2.60;2.13;;;;;;;17.29;nan;101115.34;5079469;28;20036;-75
2021/05/20 09:45:16;;;;;;;3.53;2.38;;;;;;;17.02;nan;101119.44;5067806;28;20060;-74
2021/05/20 09:47:42;;;;;;;2.92;2.55;;;;;;;16.58;nan;101114.69;5074930;28;20107;-76
2021/05/20 09:50:13;;;;;;;2.63;1.95;;;;;;;16.65;nan;101112.97;5069721;28;20036;-75
2021/05/20 09:52:38;;;;;;;3.05;2.55;;;;;;;16.73;nan;101109.41;5089407;28;20489;-74
2021/05/20 09:55:21;;;;;;;3.97;2.60;;;;;;;16.37;nan;101103.81;5085713;28;20119;-74
2021/05/20 09:57:46;;;;;;;3.05;1.95;;;;;;;15.97;nan;101103.00;5085527;28;20028;-75
2021/05/20 10:00:18;;;;;;;3.30;1.95;;;;;;;16.39;nan;101091.13;5069626;28;20048;-74
2021/05/20 10:02:45;;;;;;;3.15;1.60;;;;;;;16.76;nan;101091.22;5069121;28;20040;-75
2021/05/20 10:05:24;;;;;;;2.70;1.80;;;;;;;17.47;nan;101084.75;5068592;28;20033;-75
2021/05/20 10:07:51;;;;;;;2.35;1.60;;;;;;;18.00;nan;101075.66;5079101;28;20078;-75
2021/05/20 10:10:17;;;;;;;2.92;1.50;;;;;;;18.23;nan;101082.69;5079837;28;20032;-76
2021/05/20 10:12:46;;;;;;;3.15;1.90;;;;;;;18.40;nan;101078.78;5068740;28;20448;-76
2021/05/20 10:15:22;;;;;;;2.88;1.33;;;;;;;18.49;nan;101090.19;5049395;28;20041;-74
2021/05/20 10:17:48;;;;;;;2.80;1.92;;;;;;;19.09;nan;101080.91;5071089;28;20047;-73
2021/05/20 10:20:16;;;;;;;1.73;1.20;;;;;;;18.58;nan;101083.69;5048747;28;20140;-74
2021/05/20 10:22:42;;;;;;;2.58;2.08;;;;;;;18.55;nan;101078.72;5063708;28;20060;-73
2021/05/20 10:25:08;;;;;;;1.73;1.35;;;;;;;18.54;nan;101084.25;5072994;28;20123;-73
2021/05/20 10:27:38;;;;;;;2.58;1.90;;;;;;;18.43;nan;101080.25;5069083;28;20032;-73
2021/05/20 10:30:06;;;;;;;3.25;2.17;;;;;;;18.28;nan;101076.78;5088735;28;20036;-73
2021/05/20 10:32:32;;;;;;;3.35;2.20;;;;;;;18.34;nan;101073.34;5091257;28;20043;-73
2021/05/20 10:35:01;;;;;;;2.72;1.85;;;;;;;17.94;nan;101064.84;5067574;28;20530;-73
2021/05/20 10:37:36;;;;;;;2.83;2.00;;;;;;;17.61;nan;101055.38;5080934;28;20074;-73
2021/05/20 10:40:03;;;;;;;3.17;2.05;;;;;;;18.02;nan;101054.06;5081455;28;20070;-75
2021/05/20 10:42:36;;;;;;;4.15;2.50;;;;;;;18.14;nan;101054.38;5072143;28;20037;-73
2021/05/20 10:45:13;;;;;;;2.80;2.28;;;;;;;18.65;nan;101048.94;5091388;28;20119;-73
2021/05/20 10:48:04;;;;;;;2.80;2.10;;;;;;;18.78;nan;101042.91;5086532;28;20028;-73
2021/05/20 10:50:48;;;;;;;;;;;;;;;18.87;nan;101039.06;5071937;28;20550;-73
2021/05/20 10:53:40;;;;;;;2.15;1.73;;;;;;;19.07;nan;101034.69;5072123;28;19924;-72
2021/05/20 10:56:06;;;;;;;3.33;1.70;;;;;;;19.00;nan;101036.50;5070954;28;20036;-73
2021/05/20 10:58:36;;;;;;;2.08;1.52;;;;;;;18.43;nan;101029.38;5068274;28;20548;-72
2021/05/20 11:01:03;;;;;;;1.87;1.17;;;;;;;18.35;nan;101024.97;5071739;28;20072;-72
2021/05/20 11:03:46;;;;;;;2.20;1.48;;;;;;;18.32;nan;101024.53;5053615;28;20529;-72
2021/05/20 11:06:12;;;;;;;2.53;1.80;;;;;;;17.49;nan;101029.25;5067514;28;20147;-73
2021/05/20 11:08:38;;;;;;;1.55;1.35;;;;;;;17.73;nan;101028.13;5064431;28;20492;-72
2021/05/20 11:11:03;;;;;;;2.13;1.40;;;;;;;17.97;nan;101016.31;5071893;28;20095;-72
2021/05/20 11:13:45;;;;;;;2.80;1.67;;;;;;;17.99;nan;101016.94;5071628;28;20037;-72
2021/05/20 11:16:28;;;;;;;3.58;1.55;;;;;;;18.00;nan;101016.78;5068043;28;20062;-73
2021/05/20 11:19:13;;;;;;;2.83;1.55;;;;;;;18.50;nan;101013.38;5071958;28;20033;-73
2021/05/20 11:22:04;;;;;;;2.53;1.60;;;;;;;18.87;nan;101013.09;5084117;28;20035;-73
2021/05/20 11:24:43;;;;;;;3.22;1.50;;;;;;;18.67;nan;101009.41;5086322;28;20044;-73
2021/05/20 11:27:15;;;;;;;1.55;1.20;;;;;;;18.59;nan;101009.53;5088458;28;20393;-73
2021/05/20 11:29:42;;;;;;;2.45;1.33;;;;;;;18.31;nan;101015.66;5081474;28;20036;-72
2021/05/20 11:32:28;;;;;;;2.00;1.48;;;;;;;18.42;nan;101009.81;5088634;28;20452;-74
2021/05/20 11:37:29;;;;;;;1.48;1.08;;;;;;;18.71;nan;101015.19;5089824;28;20059;-72
2021/05/20 11:39:55;;;;;;;1.88;1.00;;;;;;;18.67;nan;101004.88;5089630;28;20123;-72
2021/05/20 11:42:28;;;;;;;1.70;0.98;;;;;;;18.68;nan;101008.38;5073631;28;20478;-72
2021/05/20 11:44:55;;;;;;;1.90;1.08;;;;;;;18.34;nan;101006.41;5072457;28;20036;-72
2021/05/20 11:47:22;;;;;;;1.38;0.82;;;;;;;18.34;nan;101006.41;5088828;28;20101;-72
2021/05/20 11:49:49;;;;;;;1.50;0.80;;;;;;;18.24;nan;101007.56;5089834;28;20032;-72
2021/05/20 11:52:14;;;;;;;2.28;1.08;;;;;;;18.11;nan;101006.59;5071410;28;20051;-72
2021/05/20 11:54:49;;;;;;;1.52;1.00;;;;;;;18.04;nan;101007.34;5086773;28;20135;-72
2021/05/20 11:57:16;;;;;;;1.90;1.13;;;;;;;18.31;nan;100999.59;5086451;28;20082;-71
2021/05/20 11:59:43;;;;;;;2.60;1.10;;;;;;;18.30;nan;101008.63;5089648;28;20036;-72